Niuzhuang, China
Current Conditions -  °F | °C
As of 6:00 AM on Tuesday 27 Jan 2015 (Local Time) from ZYTX Reporting Station
Clear Clear  
Wind Chill: -8°   Ceiling: Unl
Heat Index:   Visibility: 6mi
Dew Point: -11°   Wind: 4mph
Humidity: 56%   Direction: 20°NNE
Pressure: 30.56"   Gusts: NA
Location:  40.97°N, 122.53°E
Report Text: ZYTX 262200Z 02002MPS CAVOK M17/M24 Q1035 NOSIG
Loading
Personal Weather Stations






























Interactive Weather Map New forecast layout! Learn more

10-Day Weather Forecast

Advertisements
Track Severe Weather on mobile